Terminal Aerodrome Forecast
Issued by NWS

Home | Current Version | Previous Version | Text Only | Print | Product List | Glossary On
Versions: 1 2 3 4 5 6 7 8 9 10 11 12 13 14 15 16 17 18 19 20 21 22 23 24 25 26 27 28 29 30 31 32 33
000
FTAK31 PAFA 041740 CCA
TAFAOM
TAF COR
PAOM 041740Z 0418/0518 09008KT 2SM -SHSN BR OVC004
     FM042000 09006KT 6SM -SHSN BR OVC007
     FM050300 08006KT P6SM -SHSN SCT007 OVC015
     FM050700 10006KT 3SM -SN BR BKN007 OVC015
     FM051600 04005KT 4SM -SN BR SCT007 OVC012=

USA.gov is the U.S. government's official web portal to all federal, state and local government web resources and services.